Pagrindinis puslapis
METAR-TAF:

METAR-TAF

Oro uostai :

Kansai, Japonija

platuma: 34-25N, ilguma: 135-15E, Aukštis: 5 m

Dabartinis oras

Ataskaita buvo paskelbta 15 minutes, ne 14:00 UTC
Vėjas 11 kt iš Šiaurės Vakarų, svyruoja nuo Vakarų ir Šiaurės
Temperatūra 10°C
Drėgmė 50%
Slėgis 1024 hPa
Matomumas 10 km arba daugiau
Išsisklaidę debesys ne aukštis 5000 ft

METAR: RJBB 071400Z AUTO 32011KT 280V350 9999 SCT050 10/00 Q1024 BECMG 34012KT

Laikas: 23:15 (14:15 UTC)

Prognozė

Ataskaita buvo paskelbta 3 valandos ir 10 minutes, ne 11:05 UTC
Prognozė galioja nuo 07 metu 12 UTC su 08 metu 18 UTC
Vėjas 15 kt iš Šiaurės
Matomumas 10 km arba daugiau
Mažai debesys ne aukštis 2500 ft
Išsisklaidę debesys ne aukštis 5000 ft
Tapsmas
nuo 08 metu 09 UTC su 08 metu 12 UTC
Vėjas 10 kt iš Rytų/Šiaurės Rytų

TAF: RJBB 071105Z 0712/0818 35015KT 9999 FEW025 SCT050 BECMG 0809/0812 07010KT

Orai ataskaitas ir orų prognozės (METAR, TAF).

turimą stotys yra geltonos ir raudonos taškus žemėlapyje.

Perkelti pele per norėdami pamatyti stoties vardą.

Tada spustelėkite, norėdami matyti oro stebėjimo ir prognozės.

Norėdami pakeisti žemėlapį: spustelėkite ant žalios mygtukų su juodo kryžiaus žemyn,; žalią mygtuką su brūkšneliu, jei norite nutolinti; arba žalių rodyklių gretimoms žemėlapius.


METAR-TAF: